Time;durP1;ratioP1;P1;durP2;ratioP2;P2;SDS_P1;SDS_P2;PMS_P1;PMS_P2;Temp;Humidity;BMP_temperature;BMP_pressure;BME280_temperature;BME280_humidity;BME280_pressure;Samples;Min_cycle;Max_cycle;Signal;HPM_P1;HPM_P2
2023/03/01 00:01:09;;;;;;;16.25;8.07;;;;;;;;;;5002442;28;20037;-69
2023/03/01 00:03:34;;;;;;;16.00;6.47;;;;;;;;;;5009104;28;20078;-69
2023/03/01 00:06:00;;;;;;;15.93;6.78;;;;;;;;;;5009033;28;20042;-69
2023/03/01 00:08:25;;;;;;;13.85;7.40;;;;;;;;;;5007563;28;20105;-69
2023/03/01 00:10:59;;;;;;;14.98;6.90;;;;;;;;;;5006408;28;20021;-69
2023/03/01 00:13:25;;;;;;;13.88;7.35;;;;;;;;;;5006825;28;20368;-69
2023/03/01 00:15:50;;;;;;;17.90;6.70;;;;;;;;;;5002612;28;20100;-69
2023/03/01 00:18:15;;;;;;;13.30;7.13;;;;;;;;;;5000666;28;20030;-69
2023/03/01 00:20:40;;;;;;;15.00;7.15;;;;;;;;;;5010021;28;20134;-69
2023/03/01 00:23:05;;;;;;;13.77;6.63;;;;;;;;;;5008033;28;20095;-69
2023/03/01 00:25:30;;;;;;;16.25;7.22;;;;;;;;;;5010511;28;20033;-69
2023/03/01 00:27:56;;;;;;;16.52;7.18;;;;;;;;;;5007096;28;20018;-69
2023/03/01 00:30:21;;;;;;;19.35;7.85;;;;;;;;;;5001827;28;20025;-69
2023/03/01 00:32:46;;;;;;;14.63;7.55;;;;;;;;;;5001096;28;20018;-69
2023/03/01 00:35:11;;;;;;;13.63;6.93;;;;;;;;;;4995788;28;20025;-69
2023/03/01 00:37:36;;;;;;;19.02;8.55;;;;;;;;;;4998724;28;20101;-69
2023/03/01 00:40:03;;;;;;;17.13;7.15;;;;;;;;;;5007923;28;20093;-69
2023/03/01 00:42:31;;;;;;;17.08;7.40;;;;;;;;;;5007042;28;20023;-69
2023/03/01 00:44:56;;;;;;;17.83;7.05;;;;;;;;;;5006724;28;20044;-69
2023/03/01 00:47:21;;;;;;;22.20;6.80;;;;;;;;;;5005084;28;20026;-69
2023/03/01 00:49:46;;;;;;;20.58;7.85;;;;;;;;;;5005833;28;20549;-69
2023/03/01 00:52:11;;;;;;;16.35;7.65;;;;;;;;;;5003125;28;20093;-69
2023/03/01 00:54:36;;;;;;;13.45;6.13;;;;;;;;;;5008091;28;20114;-69
2023/03/01 00:57:02;;;;;;;18.55;7.13;;;;;;;;;;5006190;28;20034;-70
2023/03/01 00:59:27;;;;;;;19.08;6.95;;;;;;;;;;5006883;28;20041;-70
2023/03/01 01:01:52;;;;;;;15.23;7.25;;;;;;;;;;5004775;28;20452;-70
2023/03/01 01:04:17;;;;;;;13.77;6.72;;;;;;;;;;5001731;28;20113;-70
2023/03/01 01:06:44;;;;;;;15.52;6.88;;;;;;;;;;5005665;28;20029;-69
2023/03/01 01:09:16;;;;;;;15.27;7.40;;;;;;;;;;5006634;28;20049;-70
2023/03/01 01:11:42;;;;;;;22.10;7.35;;;;;;;;;;5006982;28;20505;-70
2023/03/01 01:14:07;;;;;;;16.75;7.63;;;;;;;;;;5002233;28;20026;-70
2023/03/01 01:16:33;;;;;;;15.20;7.05;;;;;;;;;;5005395;28;20022;-70
2023/03/01 01:18:58;;;;;;;11.55;6.55;;;;;;;;;;5001804;28;20150;-70
2023/03/01 01:21:24;;;;;;;16.42;7.25;;;;;;;;;;5004249;28;20030;-70
2023/03/01 01:23:49;;;;;;;16.65;6.60;;;;;;;;;;5009111;28;20109;-70
2023/03/01 01:26:22;;;;;;;16.52;7.35;;;;;;;;;;5007273;28;20052;-68
2023/03/01 01:28:47;;;;;;;18.42;7.20;;;;;;;;;;5009733;28;20439;-68
2023/03/01 01:31:13;;;;;;;15.60;8.25;;;;;;;;;;5004922;28;20115;-68
2023/03/01 01:33:38;;;;;;;12.68;6.75;;;;;;;;;;5005457;28;20022;-67
2023/03/01 01:36:04;;;;;;;20.98;8.00;;;;;;;;;;5007783;28;20065;-68
2023/03/01 01:38:29;;;;;;;16.52;7.03;;;;;;;;;;5006701;28;20391;-71
2023/03/01 01:40:55;;;;;;;12.68;6.57;;;;;;;;;;5002466;28;20084;-70
2023/03/01 01:43:28;;;;;;;14.32;7.13;;;;;;;;;;5008519;28;20029;-70
2023/03/01 01:45:55;;;;;;;15.98;7.60;;;;;;;;;;5002681;28;20483;-70
2023/03/01 01:48:22;;;;;;;13.40;6.95;;;;;;;;;;4998938;28;20434;-70
2023/03/01 01:50:50;;;;;;;15.65;7.40;;;;;;;;;;5007345;28;20025;-70
2023/03/01 01:53:18;;;;;;;19.90;7.85;;;;;;;;;;5002557;28;20030;-70
2023/03/01 01:55:46;;;;;;;14.25;6.65;;;;;;;;;;5004064;28;20095;-70
2023/03/01 01:58:13;;;;;;;18.00;7.25;;;;;;;;;;4998389;28;20033;-70
2023/03/01 02:00:39;;;;;;;15.05;6.63;;;;;;;;;;5001968;28;20450;-70
2023/03/01 02:03:12;;;;;;;15.98;6.75;;;;;;;;;;5003734;28;20027;-70
2023/03/01 02:05:49;;;;;;;15.60;6.97;;;;;;;;;;5010590;28;20038;-70
2023/03/01 02:08:15;;;;;;;22.95;7.45;;;;;;;;;;5008493;28;20605;-70
2023/03/01 02:10:41;;;;;;;12.63;6.93;;;;;;;;;;5013834;28;20037;-70
2023/03/01 02:13:06;;;;;;;20.20;6.80;;;;;;;;;;5008413;28;20022;-70
2023/03/01 02:15:33;;;;;;;14.57;6.88;;;;;;;;;;5011476;28;20029;-70
2023/03/01 02:17:58;;;;;;;20.50;7.28;;;;;;;;;;5003191;28;20623;-70
2023/03/01 02:20:24;;;;;;;18.60;7.47;;;;;;;;;;5013067;28;20025;-70
2023/03/01 02:22:49;;;;;;;12.68;6.20;;;;;;;;;;5001548;28;20031;-70
2023/03/01 02:25:33;;;;;;;23.60;7.03;;;;;;;;;;5000801;28;20069;-70
2023/03/01 02:28:03;;;;;;;14.27;7.03;;;;;;;;;;5005127;28;20465;-70
2023/03/01 02:30:28;;;;;;;14.30;7.20;;;;;;;;;;5000983;28;20081;-70
2023/03/01 02:33:02;;;;;;;12.07;6.35;;;;;;;;;;5000546;28;20022;-70
2023/03/01 02:35:28;;;;;;;18.20;6.93;;;;;;;;;;5004715;28;20030;-70
2023/03/01 02:37:56;;;;;;;17.02;7.93;;;;;;;;;;5001433;28;20117;-70
2023/03/01 02:40:22;;;;;;;14.98;7.30;;;;;;;;;;5000761;28;20098;-70
2023/03/01 02:42:55;;;;;;;15.95;7.10;;;;;;;;;;4995875;28;20117;-70
2023/03/01 02:45:21;;;;;;;18.77;7.93;;;;;;;;;;5011325;28;20478;-70
2023/03/01 02:47:46;;;;;;;14.50;7.00;;;;;;;;;;5009953;28;20033;-70
2023/03/01 02:50:34;;;;;;;15.45;6.95;;;;;;;;;;5005550;28;20019;-70
2023/03/01 02:53:09;;;;;;;14.95;7.22;;;;;;;;;;5007509;28;20030;-70
2023/03/01 02:55:34;;;;;;;17.98;7.70;;;;;;;;;;5005643;28;20030;-70
2023/03/01 02:58:01;;;;;;;18.02;8.35;;;;;;;;;;5007885;28;20109;-70
2023/03/01 03:00:29;;;;;;;16.35;7.80;;;;;;;;;;5009213;28;20034;-70
2023/03/01 03:02:56;;;;;;;20.73;8.25;;;;;;;;;;5002167;28;20979;-70
2023/03/01 03:05:23;;;;;;;15.60;7.32;;;;;;;;;;4999232;28;20026;-70
2023/03/01 03:07:49;;;;;;;21.92;8.40;;;;;;;;;;5010434;28;20018;-70
2023/03/01 03:10:16;;;;;;;16.13;7.70;;;;;;;;;;5007696;28;20037;-70
2023/03/01 03:12:41;;;;;;;18.63;8.63;;;;;;;;;;5010375;28;20435;-70
2023/03/01 03:15:08;;;;;;;20.63;8.88;;;;;;;;;;5005095;28;20065;-70
2023/03/01 03:17:37;;;;;;;22.35;7.85;;;;;;;;;;5007693;28;20026;-70
2023/03/01 03:20:03;;;;;;;16.70;7.75;;;;;;;;;;5010376;28;20061;-70
2023/03/01 03:22:28;;;;;;;19.55;8.02;;;;;;;;;;5011757;28;20061;-70
2023/03/01 03:24:54;;;;;;;20.90;8.95;;;;;;;;;;5004369;28;20435;-70
2023/03/01 03:27:19;;;;;;;20.92;8.35;;;;;;;;;;5007724;28;20033;-70
2023/03/01 03:29:44;;;;;;;20.60;7.95;;;;;;;;;;5009625;28;20383;-70
2023/03/01 03:32:09;;;;;;;15.82;7.18;;;;;;;;;;5010663;28;20030;-70
2023/03/01 03:34:34;;;;;;;18.55;7.60;;;;;;;;;;5010615;28;20148;-70
2023/03/01 03:37:00;;;;;;;16.40;7.88;;;;;;;;;;5009836;28;20025;-70
2023/03/01 03:39:26;;;;;;;17.10;7.90;;;;;;;;;;5009431;28;20025;-70
2023/03/01 03:41:51;;;;;;;20.50;8.60;;;;;;;;;;5006428;28;20134;-70
2023/03/01 03:44:17;;;;;;;16.17;7.60;;;;;;;;;;5010537;28;20543;-70
2023/03/01 03:46:42;;;;;;;19.35;7.88;;;;;;;;;;5003627;28;20544;-70
2023/03/01 03:49:07;;;;;;;17.33;8.18;;;;;;;;;;5007970;28;20029;-70
2023/03/01 03:51:32;;;;;;;24.67;9.63;;;;;;;;;;5009402;28;20017;-70
2023/03/01 03:53:57;;;;;;;21.02;8.68;;;;;;;;;;5003991;28;21797;-70
2023/03/01 03:56:25;;;;;;;21.00;8.30;;;;;;;;;;5009791;28;20026;-70
2023/03/01 03:58:50;;;;;;;26.30;8.95;;;;;;;;;;5008370;28;20033;-70
2023/03/01 04:01:16;;;;;;;14.68;8.13;;;;;;;;;;5008777;28;20029;-70
2023/03/01 04:03:41;;;;;;;19.63;8.25;;;;;;;;;;5010988;28;20034;-70
2023/03/01 04:06:06;;;;;;;22.85;8.73;;;;;;;;;;5008652;28;20021;-70
2023/03/01 04:08:32;;;;;;;18.05;8.60;;;;;;;;;;5008965;28;20018;-70
2023/03/01 04:10:59;;;;;;;17.52;9.13;;;;;;;;;;5007184;28;20124;-70
2023/03/01 04:13:25;;;;;;;19.63;9.27;;;;;;;;;;5011577;28;20072;-70
2023/03/01 04:15:53;;;;;;;27.85;10.90;;;;;;;;;;5007788;28;20029;-70
2023/03/01 04:18:20;;;;;;;17.90;8.52;;;;;;;;;;5004364;28;20038;-70
2023/03/01 04:20:46;;;;;;;21.70;8.65;;;;;;;;;;5008228;28;20041;-70
2023/03/01 04:23:15;;;;;;;23.83;9.70;;;;;;;;;;5008316;28;20021;-70
2023/03/01 04:25:54;;;;;;;27.60;8.80;;;;;;;;;;5009764;28;20468;-70
2023/03/01 04:28:20;;;;;;;21.58;8.77;;;;;;;;;;5004671;28;20610;-69
2023/03/01 04:30:46;;;;;;;22.02;9.23;;;;;;;;;;5005812;28;20014;-68
2023/03/01 04:33:11;;;;;;;20.80;9.65;;;;;;;;;;4999787;28;20029;-68
2023/03/01 04:35:37;;;;;;;18.25;8.80;;;;;;;;;;5002424;28;20398;-69
2023/03/01 04:38:02;;;;;;;18.50;8.52;;;;;;;;;;5007603;28;20038;-70
2023/03/01 04:40:28;;;;;;;19.75;9.13;;;;;;;;;;5009847;28;20394;-72
2023/03/01 04:42:53;;;;;;;23.73;9.85;;;;;;;;;;5007488;28;20034;-72
2023/03/01 04:45:18;;;;;;;24.23;9.10;;;;;;;;;;5008997;28;20025;-72
2023/03/01 04:47:45;;;;;;;20.40;8.63;;;;;;;;;;5004096;28;20029;-71
2023/03/01 04:50:12;;;;;;;26.00;8.73;;;;;;;;;;5006454;28;20112;-71
2023/03/01 04:52:37;;;;;;;21.30;10.13;;;;;;;;;;5005603;28;20022;-71
2023/03/01 04:55:03;;;;;;;25.33;9.30;;;;;;;;;;5006607;28;20026;-72
2023/03/01 04:57:28;;;;;;;18.73;9.10;;;;;;;;;;5009861;28;20568;-73
2023/03/01 04:59:54;;;;;;;22.55;9.27;;;;;;;;;;5008823;28;20014;-72
2023/03/01 05:02:19;;;;;;;22.73;9.65;;;;;;;;;;5001972;28;20018;-72
2023/03/01 05:04:44;;;;;;;22.05;9.73;;;;;;;;;;5007839;28;20014;-73
2023/03/01 05:07:09;;;;;;;19.98;9.52;;;;;;;;;;5010426;28;20025;-72
2023/03/01 05:09:34;;;;;;;22.92;9.85;;;;;;;;;;5005955;28;20076;-73
2023/03/01 05:12:00;;;;;;;24.58;10.15;;;;;;;;;;5007655;28;20014;-72
2023/03/01 05:14:25;;;;;;;25.90;10.35;;;;;;;;;;5009591;28;20010;-72
2023/03/01 05:16:50;;;;;;;22.25;9.75;;;;;;;;;;5007969;28;20053;-72
2023/03/01 05:19:15;;;;;;;25.73;10.52;;;;;;;;;;5006812;28;20038;-72
2023/03/01 05:22:01;;;;;;;20.35;9.75;;;;;;;;;;5006845;28;20021;-72
2023/03/01 05:24:27;;;;;;;29.00;11.85;;;;;;;;;;5000566;28;20030;-72
2023/03/01 05:26:53;;;;;;;26.90;12.27;;;;;;;;;;5004621;28;20026;-72
2023/03/01 05:29:24;;;;;;;24.80;10.85;;;;;;;;;;5010204;28;20072;-72
2023/03/01 05:31:51;;;;;;;27.00;10.52;;;;;;;;;;5004251;28;20426;-72
2023/03/01 05:34:17;;;;;;;23.27;10.55;;;;;;;;;;5009737;28;20018;-72
2023/03/01 05:36:42;;;;;;;20.83;9.98;;;;;;;;;;5006498;28;20037;-72
2023/03/01 05:39:07;;;;;;;30.67;12.52;;;;;;;;;;5009814;28;20148;-72
2023/03/01 05:41:32;;;;;;;28.25;11.65;;;;;;;;;;5005261;28;20025;-72
2023/03/01 05:43:57;;;;;;;22.42;10.80;;;;;;;;;;5008954;28;20029;-72
2023/03/01 05:46:24;;;;;;;28.25;11.48;;;;;;;;;;5005774;28;20026;-72
2023/03/01 05:48:49;;;;;;;27.63;11.98;;;;;;;;;;5010311;28;20018;-72
2023/03/01 05:51:14;;;;;;;34.55;12.15;;;;;;;;;;5006046;28;20105;-72
2023/03/01 05:53:39;;;;;;;27.27;10.13;;;;;;;;;;5009854;28;20166;-72
2023/03/01 05:56:05;;;;;;;25.27;10.63;;;;;;;;;;5007952;28;20045;-72
2023/03/01 05:58:31;;;;;;;25.75;10.85;;;;;;;;;;5008351;28;20029;-72
2023/03/01 06:00:56;;;;;;;28.40;10.05;;;;;;;;;;5006150;28;20018;-72
2023/03/01 06:03:21;;;;;;;26.17;10.05;;;;;;;;;;5001918;28;20022;-72
2023/03/01 06:05:47;;;;;;;19.83;9.07;;;;;;;;;;5000222;28;20089;-72
2023/03/01 06:08:12;;;;;;;23.65;10.13;;;;;;;;;;4993018;28;20030;-73
2023/03/01 06:10:38;;;;;;;31.48;9.65;;;;;;;;;;5004379;28;20022;-72
2023/03/01 06:13:03;;;;;;;27.77;11.90;;;;;;;;;;5003329;28;20061;-70
2023/03/01 06:15:28;;;;;;;17.90;8.18;;;;;;;;;;4995608;28;20085;-71
2023/03/01 06:17:55;;;;;;;28.50;11.82;;;;;;;;;;4995102;28;20026;-71
2023/03/01 06:20:21;;;;;;;28.98;10.82;;;;;;;;;;5001552;28;20017;-71
2023/03/01 06:22:47;;;;;;;24.25;10.70;;;;;;;;;;5000389;28;20769;-71
2023/03/01 06:25:14;;;;;;;38.00;10.98;;;;;;;;;;4998548;28;20017;-71
2023/03/01 06:27:40;;;;;;;24.85;10.70;;;;;;;;;;4997813;28;20033;-71
2023/03/01 06:30:06;;;;;;;23.65;10.55;;;;;;;;;;5004794;28;20029;-71
2023/03/01 06:32:32;;;;;;;23.75;9.30;;;;;;;;;;5003176;28;20492;-71
2023/03/01 06:34:58;;;;;;;34.03;10.25;;;;;;;;;;4998443;28;20133;-71
2023/03/01 06:37:23;;;;;;;32.33;11.68;;;;;;;;;;5003040;28;20023;-70
2023/03/01 06:39:49;;;;;;;29.30;11.48;;;;;;;;;;4996357;28;20088;-70
2023/03/01 06:42:14;;;;;;;25.98;12.38;;;;;;;;;;5005341;28;20022;-70
2023/03/01 06:44:39;;;;;;;30.25;12.27;;;;;;;;;;5000134;28;20018;-70
2023/03/01 06:47:04;;;;;;;29.13;11.82;;;;;;;;;;5003573;28;20391;-71
2023/03/01 06:49:30;;;;;;;33.60;13.75;;;;;;;;;;5003692;28;20076;-70
2023/03/01 06:51:56;;;;;;;32.75;14.50;;;;;;;;;;5002880;28;20502;-70
2023/03/01 06:54:22;;;;;;;46.42;13.88;;;;;;;;;;5011264;28;20026;-70
2023/03/01 06:56:47;;;;;;;32.90;14.88;;;;;;;;;;5007127;28;20478;-70
2023/03/01 06:59:13;;;;;;;26.38;11.88;;;;;;;;;;5009734;28;20099;-70
2023/03/01 07:01:38;;;;;;;31.40;12.88;;;;;;;;;;5002652;28;20022;-70
2023/03/01 07:04:04;;;;;;;25.83;11.05;;;;;;;;;;5002103;28;20022;-70
2023/03/01 07:06:29;;;;;;;29.08;12.82;;;;;;;;;;5006401;28;20391;-70
2023/03/01 07:08:54;;;;;;;25.48;11.48;;;;;;;;;;5006684;28;20623;-70
2023/03/01 07:11:19;;;;;;;27.65;11.98;;;;;;;;;;5005834;28;20045;-70
2023/03/01 07:13:44;;;;;;;27.42;12.52;;;;;;;;;;5011356;28;20017;-70
2023/03/01 07:16:09;;;;;;;18.88;6.78;;;;;;;;;;5003238;28;20083;-70
2023/03/01 07:18:35;;;;;;;23.88;11.73;;;;;;;;;;5002829;28;20034;-70
2023/03/01 07:21:04;;;;;;;25.77;11.07;;;;;;;;;;5010294;28;20157;-70
2023/03/01 07:23:29;;;;;;;31.48;12.57;;;;;;;;;;5002921;28;20128;-70
2023/03/01 07:25:55;;;;;;;27.08;12.45;;;;;;;;;;5003126;28;20068;-70
2023/03/01 07:28:20;;;;;;;27.67;11.65;;;;;;;;;;5005308;28;20491;-72
2023/03/01 07:30:45;;;;;;;32.63;12.02;;;;;;;;;;5008383;28;20036;-71
2023/03/01 07:33:10;;;;;;;24.40;11.63;;;;;;;;;;5001779;28;20018;-71
2023/03/01 07:35:36;;;;;;;20.40;11.38;;;;;;;;;;5002796;28;20590;-71
2023/03/01 07:38:01;;;;;;;23.13;10.57;;;;;;;;;;5005043;28;20526;-71
2023/03/01 07:40:26;;;;;;;26.83;11.48;;;;;;;;;;4998931;28;20268;-71
2023/03/01 07:42:55;;;;;;;19.38;11.18;;;;;;;;;;5010748;28;20632;-71
2023/03/01 07:45:20;;;;;;;18.48;10.50;;;;;;;;;;5007294;28;20532;-71
2023/03/01 07:47:45;;;;;;;18.50;10.63;;;;;;;;;;5002051;28;20026;-71
2023/03/01 07:50:11;;;;;;;18.45;9.68;;;;;;;;;;5004668;28;20264;-72
2023/03/01 07:52:36;;;;;;;25.88;10.40;;;;;;;;;;5006504;28;20021;-71
2023/03/01 07:55:01;;;;;;;21.55;10.48;;;;;;;;;;5003495;28;20018;-72
2023/03/01 07:57:26;;;;;;;22.30;11.00;;;;;;;;;;5007353;28;20483;-71
2023/03/01 07:59:52;;;;;;;22.75;11.65;;;;;;;;;;5004905;28;20026;-72
2023/03/01 08:02:17;;;;;;;18.52;10.80;;;;;;;;;;5005659;28;20411;-71
2023/03/01 08:04:42;;;;;;;25.63;10.65;;;;;;;;;;5007894;28;20022;-72
2023/03/01 08:07:07;;;;;;;18.75;10.80;;;;;;;;;;5006139;28;20084;-72
2023/03/01 08:09:37;;;;;;;20.83;11.43;;;;;;;;;;5002741;28;20471;-72
2023/03/01 08:12:02;;;;;;;16.45;10.55;;;;;;;;;;5007205;28;20017;-72
2023/03/01 08:14:28;;;;;;;17.23;10.13;;;;;;;;;;5000914;28;20093;-72
2023/03/01 08:16:53;;;;;;;15.23;9.52;;;;;;;;;;5005824;28;20022;-72
2023/03/01 08:19:18;;;;;;;19.50;9.85;;;;;;;;;;5006530;28;20044;-72
2023/03/01 08:21:43;;;;;;;21.65;12.18;;;;;;;;;;5005736;28;20509;-72
2023/03/01 08:24:10;;;;;;;20.27;11.00;;;;;;;;;;5007258;28;20021;-72
2023/03/01 08:26:35;;;;;;;17.52;10.38;;;;;;;;;;5003472;28;20283;-70
2023/03/01 08:29:01;;;;;;;18.65;10.25;;;;;;;;;;5005725;28;20026;-70
2023/03/01 08:31:28;;;;;;;17.65;9.27;;;;;;;;;;5003814;28;20033;-70
2023/03/01 08:33:55;;;;;;;15.57;9.88;;;;;;;;;;4996601;28;20022;-72
2023/03/01 08:36:20;;;;;;;17.77;9.57;;;;;;;;;;5007342;28;20021;-73
2023/03/01 08:38:46;;;;;;;14.35;9.52;;;;;;;;;;5004488;28;20022;-72
2023/03/01 08:41:11;;;;;;;20.90;9.65;;;;;;;;;;4998516;28;20025;-70
2023/03/01 08:43:37;;;;;;;17.52;9.02;;;;;;;;;;5004413;28;20029;-72
2023/03/01 08:46:02;;;;;;;15.87;8.90;;;;;;;;;;4998809;28;20399;-70
2023/03/01 08:48:28;;;;;;;18.10;9.37;;;;;;;;;;5001298;28;20280;-69
2023/03/01 08:50:53;;;;;;;18.52;10.20;;;;;;;;;;4999805;28;20400;-69
2023/03/01 08:53:18;;;;;;;16.48;9.60;;;;;;;;;;4999562;28;20036;-69
2023/03/01 08:55:43;;;;;;;17.67;9.70;;;;;;;;;;5004742;28;20022;-69
2023/03/01 08:58:08;;;;;;;25.42;10.10;;;;;;;;;;5002674;28;20304;-69
2023/03/01 09:00:34;;;;;;;15.07;8.53;;;;;;;;;;5006982;28;20112;-70
2023/03/01 09:02:59;;;;;;;16.90;8.77;;;;;;;;;;5003643;28;20766;-69
2023/03/01 09:05:24;;;;;;;21.90;9.57;;;;;;;;;;5005612;28;20491;-71
2023/03/01 09:07:50;;;;;;;18.03;9.97;;;;;;;;;;5009445;28;20275;-71
2023/03/01 09:10:15;;;;;;;19.17;8.87;;;;;;;;;;5006617;28;20273;-71
2023/03/01 09:12:40;;;;;;;16.80;8.55;;;;;;;;;;5005262;28;21088;-69
2023/03/01 09:15:06;;;;;;;18.00;9.13;;;;;;;;;;5002343;28;20018;-70
2023/03/01 09:17:31;;;;;;;17.60;8.98;;;;;;;;;;4999546;28;20335;-70
2023/03/01 09:19:56;;;;;;;17.13;10.10;;;;;;;;;;5003994;28;20040;-70
2023/03/01 09:22:21;;;;;;;23.10;8.73;;;;;;;;;;5002249;28;20028;-70
2023/03/01 09:24:46;;;;;;;19.57;9.33;;;;;;;;;;5001008;28;20276;-69
2023/03/01 09:27:13;;;;;;;21.05;8.55;;;;;;;;;;5002663;28;20367;-69
2023/03/01 09:29:39;;;;;;;16.73;9.27;;;;;;;;;;5008543;28;20014;-69
2023/03/01 09:32:04;;;;;;;15.52;8.40;;;;;;;;;;5009790;28;20025;-70
2023/03/01 09:34:30;;;;;;;17.20;8.73;;;;;;;;;;5007162;28;20029;-69
2023/03/01 09:36:57;;;;;;;26.77;9.35;;;;;;;;;;5005522;28;20018;-70
2023/03/01 09:39:22;;;;;;;21.08;9.48;;;;;;;;;;5008060;28;20496;-69
2023/03/01 09:42:13;;;;;;;20.73;9.60;;;;;;;;;;5004918;28;20105;-69
2023/03/01 09:44:51;;;;;;;17.55;9.65;;;;;;;;;;5001036;28;20744;-70
2023/03/01 09:47:35;;;;;;;19.30;8.80;;;;;;;;;;5004275;28;20026;-70
2023/03/01 09:50:04;;;;;;;22.27;10.07;;;;;;;;;;5006823;28;20006;-70
2023/03/01 09:52:36;;;;;;;16.05;9.30;;;;;;;;;;5008948;28;20024;-70
2023/03/01 09:55:01;;;;;;;20.02;9.60;;;;;;;;;;5004630;28;20032;-69
2023/03/01 09:57:34;;;;;;;16.48;9.07;;;;;;;;;;5007428;28;20037;-69
2023/03/01 10:00:12;;;;;;;22.63;9.82;;;;;;;;;;5005618;28;20080;-70
2023/03/01 10:02:46;;;;;;;22.05;9.88;;;;;;;;;;4998870;28;20471;-69
2023/03/01 10:05:26;;;;;;;21.10;8.88;;;;;;;;;;5005161;28;20049;-69
2023/03/01 10:08:00;;;;;;;32.35;11.32;;;;;;;;;;4998339;28;20038;-70
2023/03/01 10:10:32;;;;;;;21.40;9.50;;;;;;;;;;4999055;28;20022;-70
2023/03/01 10:12:59;;;;;;;16.10;8.57;;;;;;;;;;5000577;28;20022;-70
2023/03/01 10:15:35;;;;;;;15.32;8.52;;;;;;;;;;4999430;28;20056;-70
2023/03/01 10:18:12;;;;;;;18.60;8.10;;;;;;;;;;5006672;28;20022;-70
2023/03/01 10:20:46;;;;;;;18.02;9.55;;;;;;;;;;5003732;28;20030;-70
2023/03/01 10:23:11;;;;;;;26.20;8.70;;;;;;;;;;5006669;28;20018;-69
2023/03/01 10:25:55;;;;;;;14.68;8.50;;;;;;;;;;5006191;28;20085;-70
2023/03/01 10:28:25;;;;;;;19.30;9.50;;;;;;;;;;5005002;28;20376;-70
2023/03/01 10:30:51;;;;;;;20.35;8.95;;;;;;;;;;5008554;28;20041;-70
2023/03/01 10:33:24;;;;;;;17.10;9.27;;;;;;;;;;5003109;28;20471;-70
2023/03/01 10:35:49;;;;;;;17.08;9.10;;;;;;;;;;5004785;28;20052;-70
2023/03/01 10:38:15;;;;;;;27.20;10.80;;;;;;;;;;5003879;28;20479;-69
2023/03/01 10:40:57;;;;;;;17.65;9.20;;;;;;;;;;5005263;28;20466;-70
2023/03/01 10:43:22;;;;;;;18.33;9.25;;;;;;;;;;5001709;28;20108;-70
2023/03/01 10:45:48;;;;;;;17.73;8.85;;;;;;;;;;5008404;28;20109;-70
2023/03/01 10:48:27;;;;;;;16.75;9.68;;;;;;;;;;5006178;28;20109;-70
2023/03/01 10:50:52;;;;;;;19.42;8.13;;;;;;;;;;5010817;28;20371;-69
2023/03/01 10:53:24;;;;;;;21.38;8.65;;;;;;;;;;5009833;28;20022;-70
2023/03/01 10:55:56;;;;;;;17.77;9.45;;;;;;;;;;5005802;28;20037;-70
2023/03/01 10:58:22;;;;;;;21.90;9.27;;;;;;;;;;5005991;28;20030;-70
2023/03/01 11:00:54;;;;;;;19.23;9.27;;;;;;;;;;5010802;28;20029;-70
2023/03/01 11:03:22;;;;;;;17.55;9.88;;;;;;;;;;5010358;28;20105;-70
2023/03/01 11:06:10;;;;;;;20.55;9.07;;;;;;;;;;5010878;28;20025;-70
2023/03/01 11:08:39;;;;;;;19.25;9.52;;;;;;;;;;5006684;28;20053;-70
2023/03/01 11:11:24;;;;;;;10.55;4.25;;;;;;;;;;5006794;28;20049;-70
2023/03/01 11:13:54;;;;;;;14.85;9.02;;;;;;;;;;5006938;28;20018;-70
2023/03/01 11:16:25;;;;;;;16.60;8.70;;;;;;;;;;5005084;28;20026;-70
2023/03/01 11:18:58;;;;;;;20.40;8.93;;;;;;;;;;5005691;28;20053;-70
2023/03/01 11:21:24;;;;;;;15.25;8.98;;;;;;;;;;5007781;28;20021;-70
2023/03/01 11:23:50;;;;;;;13.80;8.48;;;;;;;;;;5004586;28;20384;-70
2023/03/01 11:26:16;;;;;;;16.42;9.20;;;;;;;;;;5006114;28;20018;-70
2023/03/01 11:28:42;;;;;;;21.90;9.38;;;;;;;;;;5002574;28;20014;-69
2023/03/01 11:31:11;;;;;;;18.42;8.82;;;;;;;;;;5005392;28;20109;-70
2023/03/01 11:33:59;;;;;;;19.17;9.30;;;;;;;;;;5004311;28;20061;-69
2023/03/01 11:36:31;;;;;;;16.35;9.32;;;;;;;;;;5009851;28;20548;-70
2023/03/01 11:38:57;;;;;;;18.50;9.68;;;;;;;;;;5005307;28;20031;-70
2023/03/01 11:41:26;;;;;;;13.65;8.38;;;;;;;;;;5006423;28;20029;-69
2023/03/01 11:43:51;;;;;;;18.15;9.10;;;;;;;;;;5005991;28;20117;-69
2023/03/01 11:46:32;;;;;;;19.33;8.27;;;;;;;;;;5009329;28;20108;-70
2023/03/01 11:48:58;;;;;;;;;;;;;;;;;;5004599;28;20469;-70
2023/03/01 11:51:30;;;;;;;16.10;8.80;;;;;;;;;;5003427;28;19955;-70
2023/03/01 11:54:05;;;;;;;21.52;9.75;;;;;;;;;;5005967;28;20387;-70
2023/03/01 11:56:34;;;;;;;18.42;9.27;;;;;;;;;;5005436;28;20030;-70
2023/03/01 11:59:17;;;;;;;19.05;9.85;;;;;;;;;;5002927;28;20034;-70
2023/03/01 12:01:45;;;;;;;18.38;9.02;;;;;;;;;;5000772;28;20083;-69
2023/03/01 12:04:10;;;;;;;17.27;9.05;;;;;;;;;;5005912;28;20109;-70
2023/03/01 12:06:43;;;;;;;17.23;8.05;;;;;;;;;;5004851;28;20452;-69
2023/03/01 12:09:12;;;;;;;27.02;7.88;;;;;;;;;;5004207;28;20030;-70
2023/03/01 12:11:55;;;;;;;22.25;8.38;;;;;;;;;;5005696;28;20014;-70
2023/03/01 12:14:39;;;;;;;16.17;8.98;;;;;;;;;;5007038;28;20383;-70
2023/03/01 12:17:07;;;;;;;17.52;9.15;;;;;;;;;;5006393;28;20021;-70
2023/03/01 12:19:50;;;;;;;17.13;9.35;;;;;;;;;;5004704;28;20030;-71
2023/03/01 12:22:29;;;;;;;15.65;8.20;;;;;;;;;;5002219;28;20030;-71
2023/03/01 12:25:13;;;;;;;16.23;8.07;;;;;;;;;;5002204;28;20030;-71
2023/03/01 12:27:50;;;;;;;18.55;9.60;;;;;;;;;;5006513;28;20076;-71
2023/03/01 12:30:27;;;;;;;20.80;9.23;;;;;;;;;;5006153;28;20084;-70
2023/03/01 12:32:59;;;;;;;13.70;8.10;;;;;;;;;;5003858;28;20619;-70
2023/03/01 12:35:26;;;;;;;14.80;7.63;;;;;;;;;;5007249;28;20026;-72
2023/03/01 12:38:05;;;;;;;18.48;8.98;;;;;;;;;;5007310;28;20416;-72
2023/03/01 12:40:40;;;;;;;15.45;8.27;;;;;;;;;;5002756;28;20064;-72
2023/03/01 12:43:05;;;;;;;15.32;8.23;;;;;;;;;;5004467;28;20026;-72
2023/03/01 12:45:47;;;;;;;20.20;8.00;;;;;;;;;;5005057;28;20032;-73
2023/03/01 12:48:23;;;;;;;15.30;8.68;;;;;;;;;;5008517;28;20272;-72
2023/03/01 12:50:51;;;;;;;12.20;7.82;;;;;;;;;;5009757;28;20023;-72
2023/03/01 12:53:28;;;;;;;15.25;8.50;;;;;;;;;;5005045;28;20030;-71
2023/03/01 12:55:55;;;;;;;15.35;8.02;;;;;;;;;;4999841;28;20026;-72
2023/03/01 12:58:32;;;;;;;15.27;7.70;;;;;;;;;;4998287;28;20125;-72
2023/03/01 13:01:00;;;;;;;15.68;8.15;;;;;;;;;;5001550;28;20026;-72
2023/03/01 13:03:36;;;;;;;13.63;8.27;;;;;;;;;;5002158;28;20022;-72
2023/03/01 13:06:11;;;;;;;16.88;8.52;;;;;;;;;;4998300;28;20483;-72
2023/03/01 13:08:36;;;;;;;23.65;9.10;;;;;;;;;;5001003;28;20080;-72
2023/03/01 13:11:03;;;;;;;12.47;7.47;;;;;;;;;;4996146;28;20010;-72
2023/03/01 13:13:28;;;;;;;17.90;8.35;;;;;;;;;;5004941;28;20681;-72
2023/03/01 13:15:54;;;;;;;18.55;8.35;;;;;;;;;;5001706;28;20023;-72
2023/03/01 13:18:19;;;;;;;13.90;8.00;;;;;;;;;;5001080;28;20060;-72
2023/03/01 13:20:48;;;;;;;17.60;7.97;;;;;;;;;;5004993;28;20088;-72
2023/03/01 13:23:22;;;;;;;16.42;8.40;;;;;;;;;;5005493;28;20045;-72
2023/03/01 13:25:57;;;;;;;14.90;8.00;;;;;;;;;;5002799;28;20037;-72
2023/03/01 13:28:31;;;;;;;15.35;7.85;;;;;;;;;;5003012;28;20022;-72
2023/03/01 13:30:56;;;;;;;28.05;7.32;;;;;;;;;;5003247;28;20053;-72
2023/03/01 13:33:27;;;;;;;15.57;7.47;;;;;;;;;;5005490;28;20123;-72
2023/03/01 13:35:57;;;;;;;15.00;7.85;;;;;;;;;;5003510;28;20304;-72
2023/03/01 13:38:37;;;;;;;14.75;7.22;;;;;;;;;;5006468;28;20053;-72
2023/03/01 13:41:03;;;;;;;20.30;6.90;;;;;;;;;;5004482;28;20022;-72
2023/03/01 13:43:30;;;;;;;12.40;6.63;;;;;;;;;;5000854;28;20505;-72
2023/03/01 13:45:55;;;;;;;11.77;6.55;;;;;;;;;;5007308;28;20030;-72
2023/03/01 13:48:25;;;;;;;16.02;7.53;;;;;;;;;;5002789;28;20060;-72
2023/03/01 13:50:52;;;;;;;13.53;6.63;;;;;;;;;;5001416;28;20506;-72
2023/03/01 13:53:19;;;;;;;18.00;6.95;;;;;;;;;;5003907;28;20026;-72
2023/03/01 13:55:46;;;;;;;20.10;7.30;;;;;;;;;;5003220;28;20078;-72
2023/03/01 13:58:23;;;;;;;16.45;7.63;;;;;;;;;;5005036;28;20018;-72
2023/03/01 14:00:55;;;;;;;16.80;7.80;;;;;;;;;;4999766;28;20023;-72
2023/03/01 14:03:20;;;;;;;16.58;7.40;;;;;;;;;;5003834;28;20042;-72
2023/03/01 14:06:08;;;;;;;14.27;6.63;;;;;;;;;;4997768;28;20108;-72
2023/03/01 14:08:34;;;;;;;15.73;8.50;;;;;;;;;;4997703;28;20612;-72
2023/03/01 14:11:09;;;;;;;15.35;7.57;;;;;;;;;;5005577;28;20022;-72
2023/03/01 14:13:58;;;;;;;17.10;7.47;;;;;;;;;;5004639;28;20029;-72
2023/03/01 14:16:42;;;;;;;17.73;7.68;;;;;;;;;;5001141;28;20497;-72
2023/03/01 14:19:13;;;;;;;17.23;8.10;;;;;;;;;;5004746;28;20033;-72
2023/03/01 14:21:39;;;;;;;23.00;8.82;;;;;;;;;;5004521;28;20026;-72
2023/03/01 14:24:04;;;;;;;15.52;7.43;;;;;;;;;;4995739;28;20096;-72
2023/03/01 14:26:31;;;;;;;19.42;7.40;;;;;;;;;;4997234;28;20025;-72
2023/03/01 14:28:56;;;;;;;15.73;7.43;;;;;;;;;;5002799;28;20364;-72
2023/03/01 14:31:27;;;;;;;14.88;6.97;;;;;;;;;;5001994;28;20029;-72
2023/03/01 14:33:55;;;;;;;15.15;6.90;;;;;;;;;;5002551;28;20042;-72